sensor_id;sensor_type;location;lat;lon;timestamp;P1;durP1;ratioP1;P2;durP2;ratioP2
19905;SDS011;10115;50.906;4.438;2023-04-25T00:02:17;10.67;;;6.83;;
19905;SDS011;10115;50.906;4.438;2023-04-25T00:04:43;7.70;;;7.10;;
19905;SDS011;10115;50.906;4.438;2023-04-25T00:07:09;6.50;;;6.13;;
19905;SDS011;10115;50.906;4.438;2023-04-25T00:09:35;6.53;;;6.10;;
19905;SDS011;10115;50.906;4.438;2023-04-25T00:12:01;8.20;;;6.67;;
19905;SDS011;10115;50.906;4.438;2023-04-25T00:14:27;9.03;;;6.40;;
19905;SDS011;10115;50.906;4.438;2023-04-25T00:16:52;8.33;;;7.80;;
19905;SDS011;10115;50.906;4.438;2023-04-25T00:19:19;9.40;;;7.57;;
19905;SDS011;10115;50.906;4.438;2023-04-25T00:21:45;6.97;;;6.20;;
19905;SDS011;10115;50.906;4.438;2023-04-25T00:24:11;7.03;;;6.43;;
19905;SDS011;10115;50.906;4.438;2023-04-25T00:26:38;8.00;;;6.67;;
19905;SDS011;10115;50.906;4.438;2023-04-25T00:29:03;6.13;;;5.67;;
19905;SDS011;10115;50.906;4.438;2023-04-25T00:31:29;13.13;;;7.17;;
19905;SDS011;10115;50.906;4.438;2023-04-25T00:33:55;7.40;;;6.63;;
19905;SDS011;10115;50.906;4.438;2023-04-25T00:36:21;7.27;;;6.70;;
19905;SDS011;10115;50.906;4.438;2023-04-25T00:38:47;6.70;;;6.30;;
19905;SDS011;10115;50.906;4.438;2023-04-25T00:41:13;6.23;;;5.73;;
19905;SDS011;10115;50.906;4.438;2023-04-25T00:43:38;6.20;;;5.70;;
19905;SDS011;10115;50.906;4.438;2023-04-25T00:46:05;7.13;;;6.63;;
19905;SDS011;10115;50.906;4.438;2023-04-25T00:48:30;9.93;;;7.00;;
19905;SDS011;10115;50.906;4.438;2023-04-25T00:50:58;8.53;;;7.93;;
19905;SDS011;10115;50.906;4.438;2023-04-25T00:53:25;13.07;;;7.80;;
19905;SDS011;10115;50.906;4.438;2023-04-25T00:55:52;7.23;;;6.73;;
19905;SDS011;10115;50.906;4.438;2023-04-25T00:58:18;11.77;;;6.50;;
19905;SDS011;10115;50.906;4.438;2023-04-25T01:00:46;10.50;;;7.20;;
19905;SDS011;10115;50.906;4.438;2023-04-25T01:03:13;9.97;;;6.40;;
19905;SDS011;10115;50.906;4.438;2023-04-25T01:05:42;7.50;;;7.00;;
19905;SDS011;10115;50.906;4.438;2023-04-25T01:08:08;13.03;;;8.17;;
19905;SDS011;10115;50.906;4.438;2023-04-25T01:10:35;11.30;;;6.73;;
19905;SDS011;10115;50.906;4.438;2023-04-25T01:13:01;7.67;;;6.80;;
19905;SDS011;10115;50.906;4.438;2023-04-25T01:15:27;21.30;;;7.73;;
19905;SDS011;10115;50.906;4.438;2023-04-25T01:17:53;8.77;;;7.87;;
19905;SDS011;10115;50.906;4.438;2023-04-25T01:20:21;9.10;;;8.00;;
19905;SDS011;10115;50.906;4.438;2023-04-25T01:22:48;9.70;;;7.17;;
19905;SDS011;10115;50.906;4.438;2023-04-25T01:25:15;7.50;;;7.00;;
19905;SDS011;10115;50.906;4.438;2023-04-25T01:27:41;7.97;;;7.37;;
19905;SDS011;10115;50.906;4.438;2023-04-25T01:30:08;7.80;;;6.90;;
19905;SDS011;10115;50.906;4.438;2023-04-25T01:32:34;7.53;;;7.03;;
19905;SDS011;10115;50.906;4.438;2023-04-25T01:35:04;7.97;;;7.37;;
19905;SDS011;10115;50.906;4.438;2023-04-25T01:37:34;9.50;;;7.87;;
19905;SDS011;10115;50.906;4.438;2023-04-25T01:40:02;6.87;;;6.43;;
19905;SDS011;10115;50.906;4.438;2023-04-25T01:42:30;10.37;;;7.73;;
19905;SDS011;10115;50.906;4.438;2023-04-25T01:44:56;9.63;;;8.40;;
19905;SDS011;10115;50.906;4.438;2023-04-25T01:47:22;8.30;;;7.80;;
19905;SDS011;10115;50.906;4.438;2023-04-25T01:49:48;8.63;;;7.97;;
19905;SDS011;10115;50.906;4.438;2023-04-25T01:52:14;8.10;;;7.37;;
19905;SDS011;10115;50.906;4.438;2023-04-25T01:54:40;6.90;;;6.50;;
19905;SDS011;10115;50.906;4.438;2023-04-25T01:57:09;7.20;;;6.80;;
19905;SDS011;10115;50.906;4.438;2023-04-25T01:59:35;8.77;;;7.40;;
19905;SDS011;10115;50.906;4.438;2023-04-25T02:02:02;7.70;;;6.97;;
19905;SDS011;10115;50.906;4.438;2023-04-25T02:04:29;13.60;;;7.40;;
19905;SDS011;10115;50.906;4.438;2023-04-25T02:06:55;6.83;;;6.27;;
19905;SDS011;10115;50.906;4.438;2023-04-25T02:09:22;7.40;;;6.90;;
19905;SDS011;10115;50.906;4.438;2023-04-25T02:11:47;7.87;;;7.00;;
19905;SDS011;10115;50.906;4.438;2023-04-25T02:14:13;9.47;;;7.20;;
19905;SDS011;10115;50.906;4.438;2023-04-25T02:16:39;8.67;;;7.60;;
19905;SDS011;10115;50.906;4.438;2023-04-25T02:19:05;9.10;;;7.13;;
19905;SDS011;10115;50.906;4.438;2023-04-25T02:21:31;15.70;;;8.07;;
19905;SDS011;10115;50.906;4.438;2023-04-25T02:23:57;7.13;;;6.70;;
19905;SDS011;10115;50.906;4.438;2023-04-25T02:26:23;10.33;;;7.27;;
19905;SDS011;10115;50.906;4.438;2023-04-25T02:28:49;10.70;;;7.57;;
19905;SDS011;10115;50.906;4.438;2023-04-25T02:31:16;9.20;;;7.87;;
19905;SDS011;10115;50.906;4.438;2023-04-25T02:33:42;7.53;;;7.13;;
19905;SDS011;10115;50.906;4.438;2023-04-25T02:36:08;7.60;;;6.97;;
19905;SDS011;10115;50.906;4.438;2023-04-25T02:38:33;8.87;;;8.07;;
19905;SDS011;10115;50.906;4.438;2023-04-25T02:40:59;7.83;;;7.23;;
19905;SDS011;10115;50.906;4.438;2023-04-25T02:43:25;9.43;;;8.53;;
19905;SDS011;10115;50.906;4.438;2023-04-25T02:45:51;10.40;;;7.20;;
19905;SDS011;10115;50.906;4.438;2023-04-25T02:48:16;9.70;;;8.03;;
19905;SDS011;10115;50.906;4.438;2023-04-25T02:50:42;10.37;;;7.43;;
19905;SDS011;10115;50.906;4.438;2023-04-25T02:53:08;14.73;;;8.33;;
19905;SDS011;10115;50.906;4.438;2023-04-25T02:55:33;14.07;;;7.27;;
19905;SDS011;10115;50.906;4.438;2023-04-25T02:57:59;8.97;;;7.43;;
19905;SDS011;10115;50.906;4.438;2023-04-25T03:00:25;10.77;;;6.97;;
19905;SDS011;10115;50.906;4.438;2023-04-25T03:02:51;8.73;;;7.83;;
19905;SDS011;10115;50.906;4.438;2023-04-25T03:05:17;8.00;;;7.40;;
19905;SDS011;10115;50.906;4.438;2023-04-25T03:07:43;9.57;;;7.27;;
19905;SDS011;10115;50.906;4.438;2023-04-25T03:10:09;7.83;;;7.40;;
19905;SDS011;10115;50.906;4.438;2023-04-25T03:12:35;15.17;;;8.20;;
19905;SDS011;10115;50.906;4.438;2023-04-25T03:15:01;13.27;;;7.37;;
19905;SDS011;10115;50.906;4.438;2023-04-25T03:17:27;13.50;;;7.90;;
19905;SDS011;10115;50.906;4.438;2023-04-25T03:19:53;14.90;;;6.97;;
19905;SDS011;10115;50.906;4.438;2023-04-25T03:22:19;6.90;;;6.53;;
19905;SDS011;10115;50.906;4.438;2023-04-25T03:24:45;17.43;;;7.37;;
19905;SDS011;10115;50.906;4.438;2023-04-25T03:27:11;8.73;;;7.70;;
19905;SDS011;10115;50.906;4.438;2023-04-25T03:29:37;8.20;;;7.00;;
19905;SDS011;10115;50.906;4.438;2023-04-25T03:32:03;7.77;;;7.37;;
19905;SDS011;10115;50.906;4.438;2023-04-25T03:34:29;9.07;;;7.60;;
19905;SDS011;10115;50.906;4.438;2023-04-25T03:36:55;7.50;;;7.00;;
19905;SDS011;10115;50.906;4.438;2023-04-25T03:39:21;6.93;;;6.63;;
19905;SDS011;10115;50.906;4.438;2023-04-25T03:41:46;8.03;;;7.03;;
19905;SDS011;10115;50.906;4.438;2023-04-25T03:44:13;7.80;;;7.17;;
19905;SDS011;10115;50.906;4.438;2023-04-25T03:46:39;8.53;;;7.93;;
19905;SDS011;10115;50.906;4.438;2023-04-25T03:49:05;7.90;;;7.30;;
19905;SDS011;10115;50.906;4.438;2023-04-25T03:51:31;12.30;;;9.07;;
19905;SDS011;10115;50.906;4.438;2023-04-25T03:53:56;8.30;;;7.63;;
19905;SDS011;10115;50.906;4.438;2023-04-25T03:56:22;7.30;;;6.90;;
19905;SDS011;10115;50.906;4.438;2023-04-25T03:58:48;8.03;;;7.40;;
19905;SDS011;10115;50.906;4.438;2023-04-25T04:01:13;10.37;;;7.40;;
19905;SDS011;10115;50.906;4.438;2023-04-25T04:03:39;6.80;;;6.40;;
19905;SDS011;10115;50.906;4.438;2023-04-25T04:06:05;8.07;;;7.37;;
19905;SDS011;10115;50.906;4.438;2023-04-25T04:08:33;7.73;;;6.87;;
19905;SDS011;10115;50.906;4.438;2023-04-25T04:10:59;7.90;;;7.17;;
19905;SDS011;10115;50.906;4.438;2023-04-25T04:13:28;8.03;;;7.37;;
19905;SDS011;10115;50.906;4.438;2023-04-25T04:15:54;8.03;;;7.37;;
19905;SDS011;10115;50.906;4.438;2023-04-25T04:18:21;8.77;;;7.07;;
19905;SDS011;10115;50.906;4.438;2023-04-25T04:20:47;6.70;;;6.30;;
19905;SDS011;10115;50.906;4.438;2023-04-25T04:23:12;8.60;;;6.43;;
19905;SDS011;10115;50.906;4.438;2023-04-25T04:25:38;7.57;;;7.07;;
19905;SDS011;10115;50.906;4.438;2023-04-25T04:28:05;9.07;;;7.27;;
19905;SDS011;10115;50.906;4.438;2023-04-25T04:30:32;15.57;;;7.93;;
19905;SDS011;10115;50.906;4.438;2023-04-25T04:33:01;7.00;;;6.60;;
19905;SDS011;10115;50.906;4.438;2023-04-25T04:35:27;7.03;;;6.73;;
19905;SDS011;10115;50.906;4.438;2023-04-25T04:37:53;7.03;;;6.57;;
19905;SDS011;10115;50.906;4.438;2023-04-25T04:40:19;9.27;;;8.03;;
19905;SDS011;10115;50.906;4.438;2023-04-25T04:42:45;7.33;;;6.80;;
19905;SDS011;10115;50.906;4.438;2023-04-25T04:45:11;7.00;;;6.47;;
19905;SDS011;10115;50.906;4.438;2023-04-25T04:47:38;7.10;;;6.70;;
19905;SDS011;10115;50.906;4.438;2023-04-25T04:50:05;7.47;;;6.87;;
19905;SDS011;10115;50.906;4.438;2023-04-25T04:52:33;7.17;;;6.73;;
19905;SDS011;10115;50.906;4.438;2023-04-25T04:55:03;7.07;;;6.60;;
19905;SDS011;10115;50.906;4.438;2023-04-25T04:57:30;7.73;;;7.10;;
19905;SDS011;10115;50.906;4.438;2023-04-25T04:59:58;7.90;;;7.00;;
19905;SDS011;10115;50.906;4.438;2023-04-25T05:02:24;13.07;;;8.63;;
19905;SDS011;10115;50.906;4.438;2023-04-25T05:04:51;9.47;;;7.83;;
19905;SDS011;10115;50.906;4.438;2023-04-25T05:07:17;12.13;;;7.23;;
19905;SDS011;10115;50.906;4.438;2023-04-25T05:09:43;7.63;;;6.60;;
19905;SDS011;10115;50.906;4.438;2023-04-25T05:12:09;9.10;;;7.70;;
19905;SDS011;10115;50.906;4.438;2023-04-25T05:14:35;8.13;;;6.50;;
19905;SDS011;10115;50.906;4.438;2023-04-25T05:17:00;6.70;;;6.30;;
19905;SDS011;10115;50.906;4.438;2023-04-25T05:19:29;7.77;;;7.27;;
19905;SDS011;10115;50.906;4.438;2023-04-25T05:21:55;7.90;;;7.20;;
19905;SDS011;10115;50.906;4.438;2023-04-25T05:24:21;7.37;;;6.80;;
19905;SDS011;10115;50.906;4.438;2023-04-25T05:26:46;7.90;;;7.23;;
19905;SDS011;10115;50.906;4.438;2023-04-25T05:29:12;12.47;;;7.50;;
19905;SDS011;10115;50.906;4.438;2023-04-25T05:31:38;7.40;;;7.00;;
19905;SDS011;10115;50.906;4.438;2023-04-25T05:34:03;9.80;;;6.60;;
19905;SDS011;10115;50.906;4.438;2023-04-25T05:36:29;7.93;;;6.93;;
19905;SDS011;10115;50.906;4.438;2023-04-25T05:38:57;7.40;;;7.00;;
19905;SDS011;10115;50.906;4.438;2023-04-25T05:41:23;7.27;;;6.57;;
19905;SDS011;10115;50.906;4.438;2023-04-25T05:43:48;7.23;;;6.70;;
19905;SDS011;10115;50.906;4.438;2023-04-25T05:46:14;8.20;;;6.53;;
19905;SDS011;10115;50.906;4.438;2023-04-25T05:48:42;9.00;;;7.10;;
19905;SDS011;10115;50.906;4.438;2023-04-25T05:51:08;7.77;;;7.17;;
19905;SDS011;10115;50.906;4.438;2023-04-25T05:53:34;11.13;;;7.63;;
19905;SDS011;10115;50.906;4.438;2023-04-25T05:56:00;11.93;;;7.77;;
19905;SDS011;10115;50.906;4.438;2023-04-25T05:58:26;8.50;;;7.80;;
19905;SDS011;10115;50.906;4.438;2023-04-25T06:00:52;8.23;;;7.47;;
19905;SDS011;10115;50.906;4.438;2023-04-25T06:03:17;8.40;;;7.60;;
19905;SDS011;10115;50.906;4.438;2023-04-25T06:05:43;13.60;;;8.23;;
19905;SDS011;10115;50.906;4.438;2023-04-25T06:08:09;8.87;;;7.97;;
19905;SDS011;10115;50.906;4.438;2023-04-25T06:10:38;9.47;;;8.67;;
19905;SDS011;10115;50.906;4.438;2023-04-25T06:13:04;8.20;;;6.90;;
19905;SDS011;10115;50.906;4.438;2023-04-25T06:15:30;11.63;;;7.57;;
19905;SDS011;10115;50.906;4.438;2023-04-25T06:17:57;13.57;;;10.03;;
19905;SDS011;10115;50.906;4.438;2023-04-25T06:20:23;11.33;;;7.67;;
19905;SDS011;10115;50.906;4.438;2023-04-25T06:22:49;8.23;;;7.53;;
19905;SDS011;10115;50.906;4.438;2023-04-25T06:25:20;9.03;;;8.17;;
19905;SDS011;10115;50.906;4.438;2023-04-25T06:27:46;8.80;;;8.10;;
19905;SDS011;10115;50.906;4.438;2023-04-25T06:30:11;8.63;;;7.93;;
19905;SDS011;10115;50.906;4.438;2023-04-25T06:32:38;7.60;;;7.17;;
19905;SDS011;10115;50.906;4.438;2023-04-25T06:35:04;8.23;;;7.43;;
19905;SDS011;10115;50.906;4.438;2023-04-25T06:37:30;8.07;;;7.50;;
19905;SDS011;10115;50.906;4.438;2023-04-25T06:39:56;6.97;;;6.50;;
19905;SDS011;10115;50.906;4.438;2023-04-25T06:42:21;11.80;;;7.43;;
19905;SDS011;10115;50.906;4.438;2023-04-25T06:44:47;11.67;;;7.40;;
19905;SDS011;10115;50.906;4.438;2023-04-25T06:47:13;6.97;;;6.57;;
19905;SDS011;10115;50.906;4.438;2023-04-25T06:49:39;7.50;;;6.77;;
19905;SDS011;10115;50.906;4.438;2023-04-25T06:52:05;9.27;;;8.40;;
19905;SDS011;10115;50.906;4.438;2023-04-25T06:54:31;16.37;;;6.87;;
19905;SDS011;10115;50.906;4.438;2023-04-25T06:56:56;6.93;;;6.63;;
19905;SDS011;10115;50.906;4.438;2023-04-25T06:59:22;8.17;;;7.43;;
19905;SDS011;10115;50.906;4.438;2023-04-25T07:01:48;9.90;;;6.57;;
19905;SDS011;10115;50.906;4.438;2023-04-25T07:04:15;7.50;;;7.13;;
19905;SDS011;10115;50.906;4.438;2023-04-25T07:06:42;6.73;;;6.23;;
19905;SDS011;10115;50.906;4.438;2023-04-25T07:09:08;7.27;;;6.87;;
19905;SDS011;10115;50.906;4.438;2023-04-25T07:11:36;9.43;;;7.30;;
19905;SDS011;10115;50.906;4.438;2023-04-25T07:14:02;6.97;;;6.57;;
19905;SDS011;10115;50.906;4.438;2023-04-25T07:16:28;7.40;;;6.80;;
19905;SDS011;10115;50.906;4.438;2023-04-25T07:18:53;8.13;;;7.53;;
19905;SDS011;10115;50.906;4.438;2023-04-25T07:21:20;7.53;;;6.83;;
19905;SDS011;10115;50.906;4.438;2023-04-25T07:23:45;8.80;;;6.40;;
19905;SDS011;10115;50.906;4.438;2023-04-25T07:26:11;6.77;;;6.37;;
19905;SDS011;10115;50.906;4.438;2023-04-25T07:28:37;10.23;;;7.40;;
19905;SDS011;10115;50.906;4.438;2023-04-25T07:31:03;7.73;;;7.03;;
19905;SDS011;10115;50.906;4.438;2023-04-25T07:33:31;7.57;;;7.07;;
19905;SDS011;10115;50.906;4.438;2023-04-25T07:35:58;7.30;;;6.90;;
19905;SDS011;10115;50.906;4.438;2023-04-25T07:38:24;6.87;;;6.47;;
19905;SDS011;10115;50.906;4.438;2023-04-25T07:40:49;7.10;;;6.57;;
19905;SDS011;10115;50.906;4.438;2023-04-25T07:43:15;10.50;;;7.27;;
19905;SDS011;10115;50.906;4.438;2023-04-25T07:45:44;7.90;;;7.33;;
19905;SDS011;10115;50.906;4.438;2023-04-25T07:48:10;9.47;;;8.60;;
19905;SDS011;10115;50.906;4.438;2023-04-25T07:50:37;6.73;;;6.27;;
19905;SDS011;10115;50.906;4.438;2023-04-25T07:53:02;7.13;;;6.53;;
19905;SDS011;10115;50.906;4.438;2023-04-25T07:55:28;6.67;;;6.17;;
19905;SDS011;10115;50.906;4.438;2023-04-25T07:57:54;7.07;;;6.57;;
19905;SDS011;10115;50.906;4.438;2023-04-25T08:00:20;6.40;;;6.00;;
19905;SDS011;10115;50.906;4.438;2023-04-25T08:02:46;5.97;;;5.67;;
19905;SDS011;10115;50.906;4.438;2023-04-25T08:05:12;17.17;;;6.70;;
19905;SDS011;10115;50.906;4.438;2023-04-25T08:07:39;6.53;;;6.03;;
19905;SDS011;10115;50.906;4.438;2023-04-25T08:10:06;7.40;;;7.00;;
19905;SDS011;10115;50.906;4.438;2023-04-25T08:12:33;9.17;;;6.97;;
19905;SDS011;10115;50.906;4.438;2023-04-25T08:14:58;6.47;;;5.87;;
19905;SDS011;10115;50.906;4.438;2023-04-25T08:17:24;10.53;;;7.57;;
19905;SDS011;10115;50.906;4.438;2023-04-25T08:19:50;6.17;;;5.87;;
19905;SDS011;10115;50.906;4.438;2023-04-25T08:22:15;6.57;;;6.20;;
19905;SDS011;10115;50.906;4.438;2023-04-25T08:24:41;7.57;;;6.33;;
19905;SDS011;10115;50.906;4.438;2023-04-25T08:27:07;6.07;;;5.77;;
19905;SDS011;10115;50.906;4.438;2023-04-25T08:29:33;7.00;;;6.27;;
19905;SDS011;10115;50.906;4.438;2023-04-25T08:31:59;7.20;;;6.50;;
19905;SDS011;10115;50.906;4.438;2023-04-25T08:34:25;8.27;;;7.40;;
19905;SDS011;10115;50.906;4.438;2023-04-25T08:36:51;6.73;;;6.17;;
19905;SDS011;10115;50.906;4.438;2023-04-25T08:39:17;6.67;;;6.20;;
19905;SDS011;10115;50.906;4.438;2023-04-25T08:41:43;6.60;;;6.30;;
19905;SDS011;10115;50.906;4.438;2023-04-25T08:44:10;6.87;;;6.47;;
19905;SDS011;10115;50.906;4.438;2023-04-25T08:46:37;11.73;;;7.20;;
19905;SDS011;10115;50.906;4.438;2023-04-25T08:49:05;7.17;;;6.77;;
19905;SDS011;10115;50.906;4.438;2023-04-25T08:51:34;7.63;;;6.60;;
19905;SDS011;10115;50.906;4.438;2023-04-25T08:54:09;13.53;;;6.70;;
19905;SDS011;10115;50.906;4.438;2023-04-25T08:56:36;8.70;;;6.47;;
19905;SDS011;10115;50.906;4.438;2023-04-25T08:59:22;6.33;;;5.93;;
19905;SDS011;10115;50.906;4.438;2023-04-25T09:01:49;6.03;;;5.53;;
19905;SDS011;10115;50.906;4.438;2023-04-25T09:04:15;6.33;;;5.93;;
19905;SDS011;10115;50.906;4.438;2023-04-25T09:06:42;7.30;;;6.70;;
19905;SDS011;10115;50.906;4.438;2023-04-25T09:09:08;6.37;;;6.07;;
19905;SDS011;10115;50.906;4.438;2023-04-25T09:11:36;5.60;;;5.33;;
19905;SDS011;10115;50.906;4.438;2023-04-25T09:14:15;6.37;;;5.93;;
19905;SDS011;10115;50.906;4.438;2023-04-25T09:19:25;5.93;;;5.67;;
19905;SDS011;10115;50.906;4.438;2023-04-25T09:21:54;6.63;;;6.13;;
19905;SDS011;10115;50.906;4.438;2023-04-25T09:24:38;6.03;;;5.57;;
19905;SDS011;10115;50.906;4.438;2023-04-25T09:27:07;6.10;;;5.83;;
19905;SDS011;10115;50.906;4.438;2023-04-25T09:29:39;6.40;;;6.10;;
19905;SDS011;10115;50.906;4.438;2023-04-25T09:32:13;6.23;;;5.93;;
19905;SDS011;10115;50.906;4.438;2023-04-25T09:34:48;6.33;;;5.93;;
19905;SDS011;10115;50.906;4.438;2023-04-25T09:37:28;7.17;;;6.50;;
19905;SDS011;10115;50.906;4.438;2023-04-25T09:39:56;6.40;;;6.03;;
19905;SDS011;10115;50.906;4.438;2023-04-25T09:42:26;10.37;;;8.73;;
19905;SDS011;10115;50.906;4.438;2023-04-25T09:44:54;6.63;;;6.30;;
19905;SDS011;10115;50.906;4.438;2023-04-25T09:47:22;9.20;;;6.23;;
19905;SDS011;10115;50.906;4.438;2023-04-25T09:49:50;6.30;;;5.90;;
19905;SDS011;10115;50.906;4.438;2023-04-25T09:52:17;6.07;;;5.73;;
19905;SDS011;10115;50.906;4.438;2023-04-25T09:54:46;5.30;;;5.07;;
19905;SDS011;10115;50.906;4.438;2023-04-25T09:59:58;6.17;;;5.77;;
19905;SDS011;10115;50.906;4.438;2023-04-25T10:02:26;8.57;;;5.73;;
19905;SDS011;10115;50.906;4.438;2023-04-25T10:04:53;9.40;;;6.10;;
19905;SDS011;10115;50.906;4.438;2023-04-25T10:07:20;5.90;;;5.60;;
19905;SDS011;10115;50.906;4.438;2023-04-25T10:09:50;6.53;;;6.03;;
19905;SDS011;10115;50.906;4.438;2023-04-25T10:12:26;6.07;;;5.67;;
19905;SDS011;10115;50.906;4.438;2023-04-25T10:14:53;6.23;;;5.93;;
19905;SDS011;10115;50.906;4.438;2023-04-25T10:17:20;5.63;;;5.33;;
19905;SDS011;10115;50.906;4.438;2023-04-25T10:19:47;6.50;;;6.07;;
19905;SDS011;10115;50.906;4.438;2023-04-25T10:22:14;5.40;;;5.13;;
19905;SDS011;10115;50.906;4.438;2023-04-25T10:24:46;11.53;;;5.73;;
19905;SDS011;10115;50.906;4.438;2023-04-25T10:27:12;5.77;;;5.37;;
19905;SDS011;10115;50.906;4.438;2023-04-25T10:29:38;5.20;;;5.00;;
19905;SDS011;10115;50.906;4.438;2023-04-25T10:32:08;13.50;;;5.50;;
19905;SDS011;10115;50.906;4.438;2023-04-25T10:34:45;5.30;;;5.00;;
19905;SDS011;10115;50.906;4.438;2023-04-25T10:37:13;5.97;;;5.37;;
19905;SDS011;10115;50.906;4.438;2023-04-25T10:39:40;9.27;;;5.40;;
19905;SDS011;10115;50.906;4.438;2023-04-25T10:42:06;5.10;;;4.90;;
19905;SDS011;10115;50.906;4.438;2023-04-25T10:44:33;5.60;;;5.30;;
19905;SDS011;10115;50.906;4.438;2023-04-25T10:47:00;5.73;;;5.43;;
19905;SDS011;10115;50.906;4.438;2023-04-25T10:49:28;5.50;;;5.20;;
19905;SDS011;10115;50.906;4.438;2023-04-25T10:54:52;5.80;;;5.30;;
19905;SDS011;10115;50.906;4.438;2023-04-25T11:00:15;5.57;;;5.27;;
19905;SDS011;10115;50.906;4.438;2023-04-25T11:02:47;5.27;;;4.97;;
19905;SDS011;10115;50.906;4.438;2023-04-25T11:08:00;5.53;;;5.27;;
19905;SDS011;10115;50.906;4.438;2023-04-25T11:10:28;5.90;;;5.60;;
19905;SDS011;10115;50.906;4.438;2023-04-25T11:12:55;5.83;;;5.37;;
19905;SDS011;10115;50.906;4.438;2023-04-25T11:15:22;5.30;;;5.10;;
19905;SDS011;10115;50.906;4.438;2023-04-25T11:17:48;5.27;;;5.07;;
19905;SDS011;10115;50.906;4.438;2023-04-25T11:20:15;14.93;;;5.37;;
19905;SDS011;10115;50.906;4.438;2023-04-25T11:22:41;5.43;;;5.13;;
19905;SDS011;10115;50.906;4.438;2023-04-25T11:25:12;5.73;;;5.27;;
19905;SDS011;10115;50.906;4.438;2023-04-25T11:30:16;6.40;;;5.27;;
19905;SDS011;10115;50.906;4.438;2023-04-25T11:32:42;5.43;;;5.13;;
19905;SDS011;10115;50.906;4.438;2023-04-25T11:35:09;5.23;;;5.03;;
19905;SDS011;10115;50.906;4.438;2023-04-25T11:37:35;5.57;;;5.00;;
19905;SDS011;10115;50.906;4.438;2023-04-25T11:40:02;6.50;;;5.90;;
19905;SDS011;10115;50.906;4.438;2023-04-25T11:42:29;5.87;;;5.37;;
19905;SDS011;10115;50.906;4.438;2023-04-25T11:44:55;6.13;;;5.43;;
19905;SDS011;10115;50.906;4.438;2023-04-25T11:47:27;5.63;;;5.43;;
19905;SDS011;10115;50.906;4.438;2023-04-25T11:50:00;5.93;;;5.63;;
19905;SDS011;10115;50.906;4.438;2023-04-25T11:52:41;5.87;;;5.60;;
19905;SDS011;10115;50.906;4.438;2023-04-25T11:55:17;5.87;;;5.57;;
19905;SDS011;10115;50.906;4.438;2023-04-25T11:57:45;10.20;;;5.87;;
19905;SDS011;10115;50.906;4.438;2023-04-25T12:00:14;5.40;;;5.13;;
19905;SDS011;10115;50.906;4.438;2023-04-25T12:02:42;5.93;;;5.63;;
19905;SDS011;10115;50.906;4.438;2023-04-25T12:05:12;7.77;;;4.93;;
19905;SDS011;10115;50.906;4.438;2023-04-25T12:07:38;5.27;;;4.87;;
19905;SDS011;10115;50.906;4.438;2023-04-25T12:10:09;4.87;;;4.67;;
19905;SDS011;10115;50.906;4.438;2023-04-25T12:12:36;5.23;;;5.03;;
19905;SDS011;10115;50.906;4.438;2023-04-25T12:15:16;5.30;;;5.00;;
19905;SDS011;10115;50.906;4.438;2023-04-25T12:17:47;5.00;;;4.80;;
19905;SDS011;10115;50.906;4.438;2023-04-25T12:20:17;4.97;;;4.77;;
19905;SDS011;10115;50.906;4.438;2023-04-25T12:22:48;5.60;;;5.20;;
19905;SDS011;10115;50.906;4.438;2023-04-25T12:28:13;5.23;;;5.03;;
19905;SDS011;10115;50.906;4.438;2023-04-25T12:33:25;6.17;;;5.13;;
19905;SDS011;10115;50.906;4.438;2023-04-25T12:35:52;5.20;;;4.90;;
19905;SDS011;10115;50.906;4.438;2023-04-25T12:38:29;5.63;;;5.13;;
19905;SDS011;10115;50.906;4.438;2023-04-25T12:40:56;5.13;;;4.93;;
19905;SDS011;10115;50.906;4.438;2023-04-25T12:43:22;5.80;;;5.13;;
19905;SDS011;10115;50.906;4.438;2023-04-25T12:45:49;5.33;;;4.83;;
19905;SDS011;10115;50.906;4.438;2023-04-25T12:48:16;5.47;;;5.07;;
19905;SDS011;10115;50.906;4.438;2023-04-25T12:50:42;5.80;;;5.40;;
19905;SDS011;10115;50.906;4.438;2023-04-25T12:53:08;5.80;;;5.40;;
19905;SDS011;10115;50.906;4.438;2023-04-25T12:55:34;6.10;;;5.60;;
19905;SDS011;10115;50.906;4.438;2023-04-25T12:58:00;6.37;;;5.57;;
19905;SDS011;10115;50.906;4.438;2023-04-25T13:00:26;7.20;;;5.13;;
19905;SDS011;10115;50.906;4.438;2023-04-25T13:02:52;5.30;;;5.10;;
19905;SDS011;10115;50.906;4.438;2023-04-25T13:05:18;6.17;;;5.87;;
19905;SDS011;10115;50.906;4.438;2023-04-25T13:07:43;5.67;;;5.20;;
19905;SDS011;10115;50.906;4.438;2023-04-25T13:10:09;7.60;;;5.83;;
19905;SDS011;10115;50.906;4.438;2023-04-25T13:12:35;5.30;;;5.10;;
19905;SDS011;10115;50.906;4.438;2023-04-25T13:15:01;5.40;;;5.00;;
19905;SDS011;10115;50.906;4.438;2023-04-25T13:17:27;5.13;;;4.93;;
19905;SDS011;10115;50.906;4.438;2023-04-25T13:19:53;5.43;;;5.13;;
19905;SDS011;10115;50.906;4.438;2023-04-25T13:22:18;4.60;;;4.40;;
19905;SDS011;10115;50.906;4.438;2023-04-25T13:24:45;5.40;;;4.90;;
19905;SDS011;10115;50.906;4.438;2023-04-25T13:27:11;5.57;;;4.70;;
19905;SDS011;10115;50.906;4.438;2023-04-25T13:29:38;4.37;;;4.17;;
19905;SDS011;10115;50.906;4.438;2023-04-25T13:32:05;4.90;;;4.40;;
19905;SDS011;10115;50.906;4.438;2023-04-25T13:34:31;7.83;;;4.20;;
19905;SDS011;10115;50.906;4.438;2023-04-25T13:36:57;4.80;;;4.30;;
19905;SDS011;10115;50.906;4.438;2023-04-25T13:39:23;5.10;;;4.80;;
19905;SDS011;10115;50.906;4.438;2023-04-25T13:41:49;4.40;;;4.10;;
19905;SDS011;10115;50.906;4.438;2023-04-25T13:44:14;4.43;;;4.00;;
19905;SDS011;10115;50.906;4.438;2023-04-25T13:46:41;4.30;;;4.10;;
19905;SDS011;10115;50.906;4.438;2023-04-25T13:49:06;4.70;;;4.40;;
19905;SDS011;10115;50.906;4.438;2023-04-25T13:51:32;5.10;;;4.70;;
19905;SDS011;10115;50.906;4.438;2023-04-25T13:53:59;4.90;;;4.50;;
19905;SDS011;10115;50.906;4.438;2023-04-25T13:56:25;5.63;;;4.40;;
19905;SDS011;10115;50.906;4.438;2023-04-25T13:58:51;4.20;;;3.80;;
19905;SDS011;10115;50.906;4.438;2023-04-25T14:01:17;4.07;;;3.70;;
19905;SDS011;10115;50.906;4.438;2023-04-25T14:03:44;4.33;;;4.13;;
19905;SDS011;10115;50.906;4.438;2023-04-25T14:06:10;4.37;;;4.07;;
19905;SDS011;10115;50.906;4.438;2023-04-25T14:08:37;4.67;;;4.47;;
19905;SDS011;10115;50.906;4.438;2023-04-25T14:11:03;4.43;;;4.23;;
19905;SDS011;10115;50.906;4.438;2023-04-25T14:13:29;4.50;;;4.20;;
19905;SDS011;10115;50.906;4.438;2023-04-25T14:15:55;4.30;;;4.10;;
19905;SDS011;10115;50.906;4.438;2023-04-25T14:18:21;4.23;;;4.03;;
19905;SDS011;10115;50.906;4.438;2023-04-25T14:20:46;5.00;;;4.70;;
19905;SDS011;10115;50.906;4.438;2023-04-25T14:23:12;4.40;;;4.00;;
19905;SDS011;10115;50.906;4.438;2023-04-25T14:25:38;4.67;;;4.27;;
19905;SDS011;10115;50.906;4.438;2023-04-25T14:28:05;4.67;;;4.23;;
19905;SDS011;10115;50.906;4.438;2023-04-25T14:30:31;4.90;;;4.20;;
19905;SDS011;10115;50.906;4.438;2023-04-25T14:32:57;3.90;;;3.70;;
19905;SDS011;10115;50.906;4.438;2023-04-25T14:35:22;4.03;;;3.73;;
19905;SDS011;10115;50.906;4.438;2023-04-25T14:37:48;4.57;;;4.23;;
19905;SDS011;10115;50.906;4.438;2023-04-25T14:40:14;3.90;;;3.73;;
19905;SDS011;10115;50.906;4.438;2023-04-25T14:42:41;4.23;;;4.03;;
19905;SDS011;10115;50.906;4.438;2023-04-25T14:45:08;4.47;;;4.20;;
19905;SDS011;10115;50.906;4.438;2023-04-25T14:47:34;4.47;;;4.10;;
19905;SDS011;10115;50.906;4.438;2023-04-25T14:50:03;3.90;;;3.70;;
19905;SDS011;10115;50.906;4.438;2023-04-25T14:52:29;3.83;;;3.60;;
19905;SDS011;10115;50.906;4.438;2023-04-25T14:54:56;3.87;;;3.67;;
19905;SDS011;10115;50.906;4.438;2023-04-25T14:57:21;4.23;;;3.60;;
19905;SDS011;10115;50.906;4.438;2023-04-25T14:59:47;4.10;;;3.90;;
19905;SDS011;10115;50.906;4.438;2023-04-25T15:02:13;4.47;;;4.27;;
19905;SDS011;10115;50.906;4.438;2023-04-25T15:04:38;4.70;;;4.30;;
19905;SDS011;10115;50.906;4.438;2023-04-25T15:07:04;4.07;;;3.93;;